Time;durP1;ratioP1;P1;durP2;ratioP2;P2;SDS_P1;SDS_P2;PMS_P1;PMS_P2;Temp;Humidity;BMP_temperature;BMP_pressure;BME280_temperature;BME280_humidity;BME280_pressure;Samples;Min_cycle;Max_cycle;Signal;HPM_P1;HPM_P2
2021/12/10 00:01:44;;;;;;;31.27;13.60;;;1.80;99.90;;;;;;5090161;28;20673;-52
2021/12/10 00:04:13;;;;;;;42.50;18.87;;;1.70;99.90;;;;;;5090111;28;20466;-54
2021/12/10 00:06:42;;;;;;;32.53;14.87;;;1.70;99.90;;;;;;5090164;28;20490;-49
2021/12/10 00:09:11;;;;;;;31.33;15.63;;;1.70;99.90;;;;;;5090699;28;20497;-52
2021/12/10 00:11:45;;;;;;;23.50;12.90;;;1.80;99.90;;;;;;5091044;28;20768;-51
2021/12/10 00:14:12;;;;;;;35.77;14.33;;;1.70;99.90;;;;;;5091573;28;20442;-54
2021/12/10 00:16:42;;;;;;;50.30;17.23;;;1.70;99.90;;;;;;5091408;28;20494;-56
2021/12/10 00:19:20;;;;;;;37.07;12.60;;;1.70;99.90;;;;;;5091619;28;20438;-48
2021/12/10 00:21:48;;;;;;;33.97;14.57;;;1.70;99.90;;;;;;5092361;28;20542;-52
2021/12/10 00:24:16;;;;;;;41.63;17.03;;;1.80;99.90;;;;;;5091820;28;20478;-53
2021/12/10 00:26:44;;;;;;;27.33;13.57;;;1.70;99.90;;;;;;5091858;28;20445;-52
2021/12/10 00:29:11;;;;;;;41.90;16.83;;;1.70;99.90;;;;;;5092007;28;20447;-53
2021/12/10 00:31:47;;;;;;;37.07;15.30;;;1.70;99.90;;;;;;5091275;28;20951;-52
2021/12/10 00:34:21;;;;;;;44.53;18.00;;;1.70;99.90;;;;;;5091219;28;20489;-52
2021/12/10 00:36:50;;;;;;;45.33;16.10;;;1.80;99.90;;;;;;5090571;28;20483;-55
2021/12/10 00:39:20;;;;;;;36.87;14.23;;;1.80;99.90;;;;;;5091423;28;20446;-54
2021/12/10 00:41:50;;;;;;;45.80;18.07;;;1.80;99.90;;;;;;5090863;28;20485;-54
2021/12/10 00:44:17;;;;;;;23.07;13.13;;;1.80;99.90;;;;;;5090579;28;20508;-50
2021/12/10 00:46:45;;;;;;;38.90;13.57;;;1.80;99.90;;;;;;5091224;28;20498;-56
2021/12/10 00:49:14;;;;;;;56.00;18.23;;;1.80;99.90;;;;;;5091401;28;20454;-52
2021/12/10 00:51:42;;;;;;;52.23;18.20;;;1.80;99.90;;;;;;5090141;28;20454;-54
2021/12/10 00:54:11;;;;;;;43.33;15.57;;;1.80;99.90;;;;;;5090344;28;20450;-56
2021/12/10 00:56:41;;;;;;;48.03;18.33;;;1.80;99.90;;;;;;5092606;28;20477;-56
2021/12/10 00:59:10;;;;;;;42.47;16.30;;;1.90;99.90;;;;;;5093931;28;20435;-53
2021/12/10 01:01:39;;;;;;;40.27;16.70;;;1.90;99.90;;;;;;5093991;28;20481;-54
2021/12/10 01:04:10;;;;;;;37.67;14.27;;;1.90;99.90;;;;;;5093949;28;20470;-52
2021/12/10 01:06:39;;;;;;;46.77;17.80;;;1.90;99.90;;;;;;5094324;28;20443;-53
2021/12/10 01:09:11;;;;;;;35.97;15.80;;;1.80;99.90;;;;;;5094880;28;20465;-54
2021/12/10 01:11:42;;;;;;;44.87;17.03;;;1.80;99.90;;;;;;5094711;28;20460;-48
2021/12/10 01:14:17;;;;;;;34.57;18.20;;;1.80;99.90;;;;;;5093936;28;20444;-49
2021/12/10 01:25:26;;;;;;;42.40;19.50;;;1.80;99.90;;;;;;5094435;28;20437;-51
2021/12/10 01:27:53;;;;;;;38.70;15.77;;;1.80;99.90;;;;;;5094145;28;20426;-54
2021/12/10 01:30:22;;;;;;;34.33;15.93;;;1.80;99.90;;;;;;5094177;28;20528;-50
2021/12/10 01:32:54;;;;;;;34.37;14.47;;;1.80;99.90;;;;;;5093519;28;20461;-55
2021/12/10 01:35:27;;;;;;;31.93;14.70;;;1.80;99.90;;;;;;5094594;28;20436;-52
2021/12/10 01:37:55;;;;;;;31.37;15.90;;;1.90;99.90;;;;;;5094495;28;20512;-54
2021/12/10 01:40:25;;;;;;;41.27;18.07;;;1.80;99.90;;;;;;5094660;28;20453;-54
2021/12/10 01:43:00;;;;;;;39.00;15.63;;;1.70;99.90;;;;;;5094288;28;20478;-53
2021/12/10 01:45:30;;;;;;;50.93;17.60;;;1.70;99.90;;;;;;5094503;28;20461;-54
2021/12/10 01:48:01;;;;;;;50.20;17.77;;;1.60;99.90;;;;;;5094433;28;20513;-55
2021/12/10 01:50:30;;;;;;;40.50;14.37;;;1.70;99.90;;;;;;5094136;28;20444;-54
2021/12/10 01:52:59;;;;;;;42.23;16.20;;;1.60;99.90;;;;;;5095252;28;20476;-53
2021/12/10 01:55:29;;;;;;;29.80;15.40;;;1.60;99.90;;;;;;5094048;28;20451;-54
2021/12/10 01:57:57;;;;;;;26.60;13.07;;;1.70;99.90;;;;;;5094637;28;20462;-55
2021/12/10 02:00:29;;;;;;;42.47;16.00;;;1.70;99.90;;;;;;5094553;28;20469;-51
2021/12/10 02:02:56;;;;;;;44.03;15.67;;;1.60;99.90;;;;;;5093654;28;20490;-52
2021/12/10 02:05:22;;;;;;;41.33;16.17;;;1.60;99.90;;;;;;5093817;28;20470;-52
2021/12/10 02:07:51;;;;;;;40.97;16.77;;;1.60;99.90;;;;;;5093617;28;20462;-51
2021/12/10 02:10:20;;;;;;;37.13;15.23;;;1.60;99.90;;;;;;5094658;28;20460;-50
2021/12/10 02:12:47;;;;;;;33.87;15.50;;;1.60;99.90;;;;;;5094782;28;20495;-54
2021/12/10 02:15:15;;;;;;;37.40;13.60;;;1.60;99.90;;;;;;5093758;28;20477;-52
2021/12/10 02:17:44;;;;;;;47.30;17.60;;;1.60;99.90;;;;;;5094054;28;20508;-52
2021/12/10 02:20:17;;;;;;;44.37;15.67;;;1.60;99.90;;;;;;5094164;28;20466;-52
2021/12/10 02:22:46;;;;;;;32.23;15.40;;;1.60;99.90;;;;;;5094288;28;20470;-59
2021/12/10 02:25:14;;;;;;;44.53;15.63;;;1.60;99.90;;;;;;5093738;28;20437;-49
2021/12/10 02:27:40;;;;;;;47.50;13.70;;;1.60;99.90;;;;;;5092775;28;20454;-50
2021/12/10 02:30:11;;;;;;;37.83;17.90;;;1.60;99.90;;;;;;5092303;28;20476;-54
2021/12/10 02:32:38;;;;;;;38.37;18.20;;;1.50;99.90;;;;;;5092384;28;20794;-51
2021/12/10 02:35:10;;;;;;;37.20;16.10;;;1.50;99.90;;;;;;5092307;28;20454;-47
2021/12/10 02:37:37;;;;;;;41.37;15.83;;;1.50;99.90;;;;;;5092009;28;20462;-52
2021/12/10 02:40:07;;;;;;;28.37;13.67;;;1.60;99.90;;;;;;5092531;28;20465;-54
2021/12/10 02:42:34;;;;;;;31.00;14.70;;;1.60;99.90;;;;;;5092084;28;20471;-53
2021/12/10 02:45:01;;;;;;;42.23;16.97;;;1.60;99.90;;;;;;5092905;28;20509;-54
2021/12/10 02:47:28;;;;;;;30.27;12.60;;;1.60;99.90;;;;;;5092725;28;20438;-53
2021/12/10 02:49:55;;;;;;;28.40;13.57;;;1.60;99.90;;;;;;5093312;28;20483;-52
2021/12/10 02:52:24;;;;;;;35.97;14.80;;;1.60;99.90;;;;;;5093238;28;20455;-53
2021/12/10 02:54:50;;;;;;;37.40;13.40;;;1.60;99.90;;;;;;5092924;28;20450;-51
2021/12/10 02:57:19;;;;;;;73.20;16.73;;;1.70;99.90;;;;;;5092840;28;20493;-54
2021/12/10 02:59:46;;;;;;;59.40;19.13;;;1.70;99.90;;;;;;5092439;28;20452;-53
2021/12/10 03:02:16;;;;;;;49.10;16.90;;;1.70;99.90;;;;;;5092657;28;20490;-54
2021/12/10 03:04:45;;;;;;;26.33;13.80;;;1.70;99.90;;;;;;5093300;28;20431;-51
2021/12/10 03:07:15;;;;;;;41.20;15.23;;;1.60;99.90;;;;;;5093288;28;20477;-52
2021/12/10 03:09:45;;;;;;;56.27;16.50;;;1.60;99.90;;;;;;5092562;28;20526;-53
2021/12/10 03:12:13;;;;;;;29.83;15.87;;;1.60;99.90;;;;;;5092923;28;20426;-53
2021/12/10 03:14:44;;;;;;;49.40;17.97;;;1.70;99.90;;;;;;5092521;28;20462;-54
2021/12/10 03:17:16;;;;;;;37.43;14.67;;;1.60;99.90;;;;;;5093099;28;20469;-53
2021/12/10 03:19:43;;;;;;;48.47;17.93;;;1.60;99.90;;;;;;5092314;28;20445;-55
2021/12/10 03:22:13;;;;;;;42.27;16.10;;;1.60;99.90;;;;;;5091837;28;20808;-55
2021/12/10 03:24:40;;;;;;;36.73;14.43;;;1.70;99.90;;;;;;5092804;28;20806;-53
2021/12/10 03:27:10;;;;;;;48.40;16.30;;;1.70;99.90;;;;;;5090847;28;20478;-51
2021/12/10 03:29:40;;;;;;;35.67;15.33;;;1.70;99.90;;;;;;5087245;28;20445;-48
2021/12/10 03:32:10;;;;;;;49.87;16.03;;;1.70;99.90;;;;;;5087139;28;20958;-49
2021/12/10 03:34:38;;;;;;;34.17;14.37;;;1.70;99.90;;;;;;5087683;28;20438;-49
2021/12/10 03:37:05;;;;;;;49.90;18.27;;;1.70;99.90;;;;;;5086973;28;20449;-53
2021/12/10 03:39:33;;;;;;;35.63;17.70;;;1.70;99.90;;;;;;5086175;28;20470;-50
2021/12/10 03:42:00;;;;;;;26.67;13.27;;;1.70;99.90;;;;;;5086954;28;20507;-54
2021/12/10 03:44:27;;;;;;;52.70;17.17;;;1.70;99.90;;;;;;5086671;28;20511;-53
2021/12/10 03:46:55;;;;;;;41.53;14.17;;;1.70;99.90;;;;;;5086758;28;20502;-49
2021/12/10 03:49:24;;;;;;;35.33;15.60;;;1.70;99.90;;;;;;5086133;28;20518;-49
2021/12/10 03:51:50;;;;;;;37.43;16.10;;;1.70;99.90;;;;;;5086052;28;20474;-49
2021/12/10 03:54:18;;;;;;;44.60;18.27;;;1.80;99.90;;;;;;5086637;28;20496;-51
2021/12/10 03:56:47;;;;;;;43.03;16.60;;;1.70;99.90;;;;;;5086823;28;20504;-50
2021/12/10 03:59:16;;;;;;;38.40;14.00;;;1.80;99.90;;;;;;5086495;28;20457;-53
2021/12/10 04:01:46;;;;;;;42.10;16.20;;;1.80;99.90;;;;;;5086784;28;20437;-51
2021/12/10 04:04:16;;;;;;;38.10;14.43;;;1.90;99.90;;;;;;5086309;28;20502;-53
2021/12/10 04:06:45;;;;;;;46.17;17.37;;;1.90;99.90;;;;;;5086461;28;20793;-50
2021/12/10 04:09:12;;;;;;;41.43;18.80;;;2.00;99.90;;;;;;5085458;28;20462;-51
2021/12/10 04:11:40;;;;;;;39.20;14.70;;;2.00;99.90;;;;;;5085426;28;20806;-49
2021/12/10 04:14:07;;;;;;;34.00;15.10;;;2.00;99.90;;;;;;5085420;28;20445;-51
2021/12/10 04:16:35;;;;;;;45.27;14.57;;;1.90;99.90;;;;;;5084800;28;20482;-49
2021/12/10 04:19:05;;;;;;;27.60;15.17;;;1.90;99.90;;;;;;5086950;28;20439;-49
2021/12/10 04:21:38;;;;;;;29.17;15.40;;;2.00;99.90;;;;;;5087713;28;20477;-49
2021/12/10 04:24:12;;;;;;;36.97;16.30;;;2.00;99.90;;;;;;5087184;28;20863;-52
2021/12/10 04:26:38;;;;;;;49.70;16.37;;;2.00;99.90;;;;;;5086539;28;20423;-49
2021/12/10 04:29:06;;;;;;;34.53;14.57;;;2.00;99.90;;;;;;5086141;28;20511;-48
2021/12/10 04:31:33;;;;;;;35.30;14.47;;;1.90;99.90;;;;;;5088788;28;20528;-50
2021/12/10 04:34:00;;;;;;;34.73;15.60;;;1.90;99.90;;;;;;5089849;28;20498;-51
2021/12/10 04:36:28;;;;;;;44.97;15.07;;;1.90;99.90;;;;;;5090830;28;20447;-52
2021/12/10 04:38:55;;;;;;;36.67;18.10;;;1.90;99.90;;;;;;5089993;28;20924;-49
2021/12/10 04:41:25;;;;;;;59.00;15.63;;;1.80;99.90;;;;;;5089730;28;20470;-52
2021/12/10 04:43:53;;;;;;;32.23;14.50;;;1.90;99.90;;;;;;5089054;28;20798;-54
2021/12/10 04:46:20;;;;;;;50.67;16.27;;;1.90;99.90;;;;;;5089434;28;20504;-49
2021/12/10 04:48:51;;;;;;;62.20;17.70;;;1.90;99.90;;;;;;5088779;28;20454;-53
2021/12/10 04:51:19;;;;;;;43.33;16.10;;;1.80;99.90;;;;;;5089284;28;20446;-52
2021/12/10 04:53:46;;;;;;;40.23;14.60;;;1.80;99.90;;;;;;5089873;28;20504;-50
2021/12/10 04:56:13;;;;;;;44.10;16.67;;;1.80;99.90;;;;;;5088858;28;20447;-50
2021/12/10 04:58:41;;;;;;;35.23;17.50;;;1.90;99.90;;;;;;5089141;28;20499;-53
2021/12/10 05:01:08;;;;;;;42.30;13.87;;;1.90;99.90;;;;;;5088729;28;20468;-46
2021/12/10 05:03:35;;;;;;;44.80;16.77;;;1.90;99.90;;;;;;5089052;28;20473;-51
2021/12/10 05:06:03;;;;;;;28.63;16.53;;;1.90;99.90;;;;;;5089486;28;20454;-50
2021/12/10 05:08:32;;;;;;;41.37;14.57;;;1.90;99.90;;;;;;5089248;28;20474;-47
2021/12/10 05:10:59;;;;;;;43.30;16.10;;;1.90;99.90;;;;;;5088196;28;20505;-51
2021/12/10 05:13:26;;;;;;;38.90;15.23;;;2.00;99.90;;;;;;5089190;28;20468;-47
2021/12/10 05:15:58;;;;;;;37.20;16.57;;;2.00;99.90;;;;;;5088527;28;20470;-50
2021/12/10 05:18:27;;;;;;;23.87;11.87;;;2.00;99.90;;;;;;5088371;28;20493;-49
2021/12/10 05:20:56;;;;;;;40.30;14.90;;;2.00;99.90;;;;;;5087320;28;20448;-48
2021/12/10 05:23:31;;;;;;;39.63;15.50;;;2.00;99.90;;;;;;5088179;28;20486;-48
2021/12/10 05:25:57;;;;;;;43.47;15.97;;;2.00;99.90;;;;;;5089086;28;20523;-49
2021/12/10 05:28:24;;;;;;;32.43;13.73;;;1.90;99.90;;;;;;5089237;28;20446;-51
2021/12/10 05:30:54;;;;;;;47.50;16.63;;;1.90;99.90;;;;;;5089266;28;20454;-51
2021/12/10 05:33:28;;;;;;;43.80;16.03;;;1.90;99.90;;;;;;5087749;28;20442;-52
2021/12/10 05:35:57;;;;;;;51.37;17.40;;;1.90;99.90;;;;;;5091863;28;20450;-46
2021/12/10 05:38:23;;;;;;;51.30;18.10;;;1.90;99.90;;;;;;5096128;28;20434;-50
2021/12/10 05:40:53;;;;;;;41.43;16.90;;;1.90;99.90;;;;;;5096835;28;20465;-48
2021/12/10 05:43:20;;;;;;;30.60;12.90;;;1.90;99.90;;;;;;5096861;28;20468;-52
2021/12/10 05:45:49;;;;;;;44.47;16.37;;;1.80;99.90;;;;;;5096992;28;20450;-48
2021/12/10 05:48:16;;;;;;;50.87;17.73;;;1.80;99.90;;;;;;5096616;28;20853;-48
2021/12/10 05:50:45;;;;;;;40.43;16.80;;;1.80;99.90;;;;;;5096182;28;20442;-49
2021/12/10 05:53:12;;;;;;;41.57;16.30;;;1.80;99.90;;;;;;5096024;28;20469;-49
2021/12/10 05:55:40;;;;;;;44.47;17.63;;;1.80;99.90;;;;;;5096075;28;20430;-53
2021/12/10 05:58:08;;;;;;;29.13;17.07;;;1.80;99.90;;;;;;5097050;28;20441;-51
2021/12/10 06:00:39;;;;;;;37.93;18.03;;;1.80;99.90;;;;;;5096900;28;20442;-48
2021/12/10 06:03:08;;;;;;;36.93;16.47;;;1.80;99.90;;;;;;5096781;28;20455;-47
2021/12/10 06:05:41;;;;;;;36.13;13.60;;;1.80;99.90;;;;;;5096488;28;20484;-49
2021/12/10 06:08:09;;;;;;;42.67;16.97;;;1.80;99.90;;;;;;5091308;28;20424;-48
2021/12/10 06:10:37;;;;;;;52.73;21.93;;;1.80;99.90;;;;;;5088607;28;20446;-49
2021/12/10 06:13:04;;;;;;;47.27;18.83;;;1.80;99.90;;;;;;5088485;28;20842;-49
2021/12/10 06:15:31;;;;;;;46.23;15.07;;;1.80;99.90;;;;;;5087511;28;20476;-53
2021/12/10 06:17:58;;;;;;;52.20;19.83;;;1.80;99.90;;;;;;5088196;28;20466;-48
2021/12/10 06:20:29;;;;;;;38.23;15.90;;;1.80;99.90;;;;;;5088061;28;20605;-52
2021/12/10 06:22:57;;;;;;;52.57;19.87;;;1.80;99.90;;;;;;5087923;28;20943;-50
2021/12/10 06:25:25;;;;;;;51.67;18.53;;;1.90;99.90;;;;;;5087978;28;20446;-48
2021/12/10 06:27:52;;;;;;;51.27;18.23;;;1.90;99.90;;;;;;5087249;28;20461;-49
2021/12/10 06:30:22;;;;;;;48.43;18.80;;;1.90;99.90;;;;;;5087091;28;20470;-51
2021/12/10 06:32:50;;;;;;;38.30;17.40;;;1.90;99.90;;;;;;5087280;28;20465;-50
2021/12/10 06:35:18;;;;;;;42.30;18.20;;;1.90;99.90;;;;;;5087692;28;20902;-48
2021/12/10 06:37:45;;;;;;;45.93;17.10;;;1.90;99.90;;;;;;5087727;28;20430;-49
2021/12/10 06:40:16;;;;;;;50.33;19.73;;;1.90;99.90;;;;;;5087751;28;20450;-51
2021/12/10 06:42:44;;;;;;;32.80;16.90;;;1.90;99.90;;;;;;5087806;28;20485;-47
2021/12/10 06:45:14;;;;;;;50.30;19.23;;;1.90;99.90;;;;;;5088390;28;20490;-52
2021/12/10 06:47:44;;;;;;;74.17;21.67;;;1.90;99.90;;;;;;5087820;28;20471;-52
2021/12/10 06:50:11;;;;;;;46.93;16.73;;;1.90;99.90;;;;;;5088011;28;20479;-48
2021/12/10 06:52:38;;;;;;;42.70;16.80;;;2.00;99.90;;;;;;5087333;28;20534;-53
2021/12/10 06:55:06;;;;;;;42.50;16.90;;;2.00;99.90;;;;;;5086835;28;20463;-51
2021/12/10 06:57:34;;;;;;;38.57;16.27;;;2.00;99.90;;;;;;5086582;28;20520;-51
2021/12/10 07:00:04;;;;;;;41.90;18.27;;;2.00;99.90;;;;;;5086785;28;20467;-52
2021/12/10 07:02:31;;;;;;;40.87;19.37;;;2.00;99.90;;;;;;5086686;28;20428;-46
2021/12/10 07:04:58;;;;;;;37.63;14.43;;;2.10;99.90;;;;;;5086851;28;20998;-48
2021/12/10 07:07:25;;;;;;;38.10;17.70;;;2.00;99.90;;;;;;5088023;28;20484;-50
2021/12/10 07:09:51;;;;;;;36.57;16.03;;;2.00;99.90;;;;;;5088304;28;20435;-50
2021/12/10 07:12:19;;;;;;;48.53;20.60;;;1.90;99.90;;;;;;5083891;28;20528;-51
2021/12/10 07:14:48;;;;;;;50.97;18.60;;;1.90;99.90;;;;;;5092269;28;20505;-53
2021/12/10 07:17:16;;;;;;;60.13;20.67;;;1.90;99.90;;;;;;5094104;28;20447;-51
2021/12/10 07:19:43;;;;;;;45.27;18.20;;;2.00;99.90;;;;;;5094860;28;20431;-52
2021/12/10 07:22:11;;;;;;;35.43;16.00;;;2.00;99.90;;;;;;5094179;28;20488;-50
2021/12/10 07:24:38;;;;;;;37.33;18.90;;;2.00;99.90;;;;;;5095500;28;20467;-46
2021/12/10 07:27:09;;;;;;;39.63;15.73;;;2.00;99.90;;;;;;5094684;28;20446;-50
2021/12/10 07:29:36;;;;;;;63.37;18.90;;;2.00;99.90;;;;;;5110262;28;20481;-49
2021/12/10 07:32:03;;;;;;;42.60;19.63;;;2.00;99.90;;;;;;5114739;28;20509;-51
2021/12/10 07:34:31;;;;;;;53.77;18.60;;;2.00;99.90;;;;;;5114321;28;20464;-52
2021/12/10 07:36:58;;;;;;;31.33;15.43;;;2.10;99.90;;;;;;5112094;28;20430;-52
2021/12/10 07:39:25;;;;;;;47.97;21.63;;;2.10;99.90;;;;;;5098535;28;20617;-46
2021/12/10 07:41:52;;;;;;;47.33;15.47;;;2.10;99.90;;;;;;5103299;28;20466;-51
2021/12/10 07:44:18;;;;;;;54.37;23.27;;;2.10;99.90;;;;;;5114922;28;20477;-46
2021/12/10 07:46:48;;;;;;;43.90;20.40;;;2.10;99.90;;;;;;5113375;28;20548;-49
2021/12/10 07:49:17;;;;;;;43.80;16.97;;;2.10;99.90;;;;;;5112195;28;20921;-50
2021/12/10 07:51:49;;;;;;;53.40;18.70;;;2.10;99.90;;;;;;5093815;28;20443;-51
2021/12/10 07:54:16;;;;;;;59.83;19.47;;;2.20;99.90;;;;;;5093703;28;20474;-48
2021/12/10 07:56:46;;;;;;;55.40;21.47;;;2.20;99.90;;;;;;5093326;28;20652;-50
2021/12/10 07:59:13;;;;;;;57.60;19.50;;;2.20;99.90;;;;;;5095441;28;20474;-52
2021/12/10 08:01:41;;;;;;;37.53;14.40;;;2.20;99.90;;;;;;5099934;28;20500;-49
2021/12/10 08:04:08;;;;;;;42.33;19.77;;;2.20;99.90;;;;;;5093037;28;20482;-50
2021/12/10 08:06:36;;;;;;;42.87;17.53;;;2.30;99.90;;;;;;5096220;28;20472;-51
2021/12/10 08:09:07;;;;;;;45.47;17.83;;;2.30;99.90;;;;;;5097711;28;20452;-51
2021/12/10 08:11:36;;;;;;;54.20;21.27;;;2.30;99.90;;;;;;5096871;28;20454;-49
2021/12/10 08:14:03;;;;;;;32.77;16.20;;;2.30;99.90;;;;;;5096824;28;20485;-48
2021/12/10 08:16:30;;;;;;;36.73;18.00;;;2.40;99.90;;;;;;5097170;28;20447;-53
2021/12/10 08:18:58;;;;;;;36.93;14.80;;;2.40;99.90;;;;;;5100283;28;20430;-52
2021/12/10 08:21:26;;;;;;;52.80;19.20;;;2.40;99.90;;;;;;5110914;28;20535;-50
2021/12/10 08:23:55;;;;;;;37.83;19.00;;;2.30;99.90;;;;;;5101248;28;20453;-51
2021/12/10 08:26:23;;;;;;;41.60;16.57;;;2.60;99.90;;;;;;5115971;28;20507;-49
2021/12/10 08:28:51;;;;;;;38.77;13.93;;;2.70;99.90;;;;;;5116281;28;20456;-57
2021/12/10 08:31:18;;;;;;;46.77;20.77;;;2.70;99.90;;;;;;5116276;28;20456;-52
2021/12/10 08:33:48;;;;;;;61.83;21.33;;;2.60;99.90;;;;;;5116224;28;20441;-52
2021/12/10 08:36:17;;;;;;;54.90;17.47;;;2.60;99.90;;;;;;5097328;28;20470;-51
2021/12/10 08:38:45;;;;;;;37.37;18.33;;;2.60;99.90;;;;;;5097697;28;20816;-48
2021/12/10 08:41:16;;;;;;;54.13;18.40;;;2.60;99.90;;;;;;5102245;28;20512;-53
2021/12/10 08:43:45;;;;;;;52.00;20.50;;;2.60;99.90;;;;;;5116892;28;20466;-51
2021/12/10 08:46:15;;;;;;;39.33;16.47;;;2.60;99.90;;;;;;5116234;28;20787;-54
2021/12/10 08:48:44;;;;;;;36.40;18.13;;;2.60;99.90;;;;;;5105149;28;20462;-53
2021/12/10 08:51:14;;;;;;;45.33;17.60;;;2.60;99.90;;;;;;5096864;28;20469;-52
2021/12/10 08:53:41;;;;;;;38.87;17.20;;;2.60;99.90;;;;;;5095951;28;20469;-53
2021/12/10 08:56:08;;;;;;;36.90;18.27;;;2.60;99.90;;;;;;5095592;28;20446;-52
2021/12/10 08:58:36;;;;;;;51.87;21.70;;;2.60;99.90;;;;;;5116557;28;20491;-49
2021/12/10 09:01:07;;;;;;;37.97;17.63;;;2.70;99.90;;;;;;5116724;28;20494;-53
2021/12/10 09:03:34;;;;;;;44.70;20.67;;;2.70;99.90;;;;;;5097019;28;21118;-54
2021/12/10 09:06:01;;;;;;;49.30;19.67;;;2.70;99.90;;;;;;5099337;28;20478;-54
2021/12/10 09:08:28;;;;;;;40.13;18.47;;;2.70;99.90;;;;;;5112261;28;20851;-49
2021/12/10 09:10:55;;;;;;;46.20;17.60;;;2.70;99.90;;;;;;5112357;28;20437;-49
2021/12/10 09:13:24;;;;;;;61.30;20.47;;;2.70;99.90;;;;;;5095040;28;20510;-49
2021/12/10 09:15:57;;;;;;;53.63;19.87;;;2.80;99.90;;;;;;5096780;28;20427;-49
2021/12/10 09:18:26;;;;;;;54.33;18.50;;;2.80;99.90;;;;;;5115487;28;20434;-52
2021/12/10 09:20:57;;;;;;;44.87;19.50;;;2.80;99.90;;;;;;5114235;28;20430;-52
2021/12/10 09:23:26;;;;;;;47.43;20.00;;;2.80;99.90;;;;;;5094832;28;20427;-50
2021/12/10 09:25:55;;;;;;;51.37;18.27;;;2.80;99.90;;;;;;5094738;28;20496;-43
2021/12/10 09:28:22;;;;;;;44.73;17.97;;;2.80;99.90;;;;;;5113373;28;20503;-49
2021/12/10 09:30:53;;;;;;;41.03;16.47;;;2.80;99.90;;;;;;5099996;28;20484;-49
2021/12/10 09:33:20;;;;;;;51.57;18.30;;;2.80;99.90;;;;;;5115541;28;20450;-54
2021/12/10 09:35:49;;;;;;;42.57;16.93;;;2.80;99.90;;;;;;5115218;28;20484;-51
2021/12/10 09:38:16;;;;;;;45.10;20.93;;;2.80;99.90;;;;;;5114683;28;20434;-49
2021/12/10 09:40:47;;;;;;;45.97;21.53;;;2.80;99.90;;;;;;5114951;28;20434;-53
2021/12/10 09:43:19;;;;;;;35.80;17.80;;;2.80;99.90;;;;;;5099237;28;20465;-51
2021/12/10 09:45:46;;;;;;;55.87;20.23;;;2.80;99.90;;;;;;5095198;28;20466;-51
2021/12/10 09:48:20;;;;;;;48.47;16.77;;;2.80;99.90;;;;;;5096427;28;20478;-52
2021/12/10 09:50:54;;;;;;;46.80;17.10;;;2.90;99.90;;;;;;5093904;28;20467;-46
2021/12/10 09:53:21;;;;;;;38.17;16.50;;;2.90;99.90;;;;;;5094896;28;20427;-47
2021/12/10 09:55:49;;;;;;;35.03;15.43;;;3.00;99.90;;;;;;5094065;28;20419;-51
2021/12/10 09:58:19;;;;;;;45.53;18.60;;;3.00;99.90;;;;;;5094582;28;20538;-48
2021/12/10 10:00:49;;;;;;;47.67;21.50;;;3.00;99.90;;;;;;5093997;28;20471;-49
2021/12/10 10:03:19;;;;;;;47.93;18.10;;;3.00;99.90;;;;;;5094562;28;20482;-51
2021/12/10 10:05:48;;;;;;;48.13;17.50;;;3.00;99.90;;;;;;5092981;28;20560;-53
2021/12/10 10:08:20;;;;;;;44.33;16.00;;;3.00;99.90;;;;;;5092239;28;20518;-49
2021/12/10 10:10:50;;;;;;;31.03;13.37;;;3.00;99.90;;;;;;5092669;28;20431;-51
2021/12/10 10:13:20;;;;;;;43.57;17.67;;;3.00;99.90;;;;;;5092596;28;20487;-52
2021/12/10 10:15:51;;;;;;;41.70;18.00;;;3.10;99.90;;;;;;5092560;28;20458;-51
2021/12/10 10:18:20;;;;;;;55.43;18.53;;;3.10;99.90;;;;;;5092289;28;20478;-51
2021/12/10 10:20:51;;;;;;;43.20;15.47;;;3.10;99.90;;;;;;5092517;28;20454;-51
2021/12/10 10:23:19;;;;;;;47.90;16.80;;;3.20;99.90;;;;;;5092350;28;20458;-52
2021/12/10 10:25:49;;;;;;;47.47;15.93;;;3.10;99.90;;;;;;5091776;28;20482;-54
2021/12/10 10:28:16;;;;;;;37.40;16.60;;;3.00;99.90;;;;;;5091237;28;20434;-50
2021/12/10 10:30:53;;;;;;;43.57;17.97;;;3.00;99.90;;;;;;5091831;28;20836;-51
2021/12/10 10:33:21;;;;;;;44.47;19.47;;;3.00;99.90;;;;;;5092566;28;20537;-51
2021/12/10 10:35:54;;;;;;;50.23;17.97;;;2.90;99.90;;;;;;5092837;28;20454;-50
2021/12/10 10:38:23;;;;;;;49.47;17.87;;;3.00;99.90;;;;;;5092816;28;20453;-48
2021/12/10 10:40:54;;;;;;;41.97;14.90;;;3.00;99.90;;;;;;5091978;28;20458;-51
2021/12/10 10:43:23;;;;;;;36.63;16.30;;;3.00;99.90;;;;;;5091653;28;21000;-52
2021/12/10 10:45:50;;;;;;;40.80;17.33;;;3.10;99.90;;;;;;5090909;28;20550;-48
2021/12/10 10:48:19;;;;;;;38.60;14.10;;;3.10;99.90;;;;;;5092478;28;20439;-50
2021/12/10 10:50:52;;;;;;;47.20;18.50;;;3.10;99.90;;;;;;5092322;28;20454;-52
2021/12/10 10:53:24;;;;;;;51.20;18.10;;;3.10;99.90;;;;;;5092393;28;20431;-49
2021/12/10 10:55:55;;;;;;;38.77;16.40;;;3.10;99.90;;;;;;5087656;28;20470;-53
2021/12/10 10:58:26;;;;;;;42.80;17.83;;;3.10;99.90;;;;;;5090578;28;20430;-52
2021/12/10 11:01:03;;;;;;;33.00;14.47;;;3.10;99.90;;;;;;5090854;28;20455;-51
2021/12/10 11:03:37;;;;;;;35.53;15.90;;;3.10;99.90;;;;;;5091089;28;20449;-53
2021/12/10 11:06:09;;;;;;;39.97;17.00;;;3.20;99.90;;;;;;5090865;28;20507;-56
2021/12/10 11:08:40;;;;;;;43.87;16.00;;;3.20;99.90;;;;;;5090090;28;20478;-53
2021/12/10 11:11:14;;;;;;;47.57;20.00;;;3.20;99.90;;;;;;5090951;28;20453;-53
2021/12/10 11:13:43;;;;;;;35.33;16.50;;;3.20;99.90;;;;;;5091164;28;20543;-52
2021/12/10 11:16:13;;;;;;;38.33;17.13;;;3.20;99.90;;;;;;5087218;28;20469;-51
2021/12/10 11:18:47;;;;;;;45.47;16.87;;;3.10;99.90;;;;;;5081242;28;20442;-52
2021/12/10 11:21:17;;;;;;;42.07;17.50;;;3.10;99.90;;;;;;5094048;28;20427;-49
2021/12/10 11:23:46;;;;;;;28.47;13.80;;;3.10;99.90;;;;;;5094069;28;20439;-50
2021/12/10 11:26:12;;;;;;;37.07;14.23;;;3.10;99.90;;;;;;5091360;28;20998;-53
2021/12/10 11:28:42;;;;;;;47.93;18.03;;;3.10;99.90;;;;;;5091957;28;20443;-55
2021/12/10 11:31:13;;;;;;;44.23;14.03;;;3.00;99.90;;;;;;5092818;28;20443;-54
2021/12/10 11:33:44;;;;;;;49.63;19.07;;;3.00;99.90;;;;;;5092098;28;20457;-52
2021/12/10 11:36:13;;;;;;;32.67;13.83;;;3.00;99.90;;;;;;5092855;28;20422;-54
2021/12/10 11:38:44;;;;;;;45.00;19.30;;;3.00;99.90;;;;;;5091711;28;20494;-49
2021/12/10 11:41:14;;;;;;;28.37;12.50;;;3.00;99.90;;;;;;5091680;28;20887;-51
2021/12/10 11:43:52;;;;;;;37.80;15.70;;;3.00;99.90;;;;;;5091919;28;20470;-52
2021/12/10 11:46:30;;;;;;;42.90;15.40;;;2.90;99.90;;;;;;5091900;28;20475;-48
2021/12/10 11:49:07;;;;;;;40.90;15.27;;;2.90;99.90;;;;;;5091698;28;20494;-52
2021/12/10 11:51:38;;;;;;;39.70;18.70;;;2.90;99.90;;;;;;5092394;28;20470;-51
2021/12/10 11:54:17;;;;;;;41.07;15.37;;;3.00;99.90;;;;;;5095453;28;20486;-51
2021/12/10 11:56:47;;;;;;;55.10;18.33;;;3.00;99.90;;;;;;5093122;28;20466;-51
2021/12/10 11:59:17;;;;;;;36.60;16.63;;;3.00;99.90;;;;;;5092927;28;20443;-50
2021/12/10 12:01:51;;;;;;;40.30;17.90;;;3.10;99.90;;;;;;5092059;28;20521;-49
2021/12/10 12:04:31;;;;;;;47.67;17.87;;;3.10;99.90;;;;;;5092178;28;20427;-52
2021/12/10 12:07:35;;;;;;;38.33;15.20;;;3.10;99.90;;;;;;5092015;28;20462;-50
2021/12/10 12:10:11;;;;;;;35.47;15.07;;;3.10;99.90;;;;;;5092580;28;20462;-47
2021/12/10 12:12:43;;;;;;;41.43;15.13;;;3.10;99.90;;;;;;5091789;28;20517;-49
2021/12/10 12:15:14;;;;;;;36.27;14.93;;;3.10;99.90;;;;;;5091094;28;20459;-51
2021/12/10 12:17:44;;;;;;;39.60;16.33;;;3.20;99.90;;;;;;5091307;28;20447;-51
2021/12/10 12:20:37;;;;;;;34.27;13.60;;;3.20;99.90;;;;;;5091426;28;20439;-52
2021/12/10 12:26:01;;;;;;;43.57;19.63;;;3.20;99.90;;;;;;5091969;28;20489;-50
2021/12/10 12:28:31;;;;;;;51.03;18.67;;;3.30;99.90;;;;;;5091336;28;20467;-51
2021/12/10 12:31:07;;;;;;;37.73;14.43;;;3.30;99.90;;;;;;5091403;28;20447;-50
2021/12/10 12:33:50;;;;;;;44.07;15.50;;;3.30;99.90;;;;;;5091171;28;20497;-52
2021/12/10 12:36:18;;;;;;;45.33;17.40;;;3.30;99.90;;;;;;5091365;28;20431;-51
2021/12/10 12:38:48;;;;;;;34.60;13.80;;;3.20;99.90;;;;;;5092003;28;20506;-49
2021/12/10 12:41:19;;;;;;;33.73;12.70;;;3.20;99.90;;;;;;5091367;28;20459;-50
2021/12/10 12:43:50;;;;;;;30.10;14.47;;;3.20;99.90;;;;;;5091068;28;20451;-51
2021/12/10 12:46:17;;;;;;;36.47;13.17;;;3.20;99.90;;;;;;5091083;28;20486;-45
2021/12/10 12:49:05;;;;;;;29.23;11.77;;;3.20;99.90;;;;;;5091455;28;20646;-49
2021/12/10 12:51:32;;;;;;;39.93;13.80;;;3.20;99.90;;;;;;5084412;28;20472;-46
2021/12/10 12:53:59;;;;;;;31.40;15.97;;;3.20;99.90;;;;;;5095196;28;20429;-49
2021/12/10 12:56:29;;;;;;;30.33;12.20;;;3.20;99.90;;;;;;5094458;28;20442;-47
2021/12/10 12:58:59;;;;;;;41.73;16.03;;;3.30;99.90;;;;;;5094301;28;20492;-45